createdAt,value
2022-11-27T00:02:26.384Z,101494.81
2022-11-27T00:05:28.793Z,101488.31
2022-11-27T00:08:31.009Z,101489.06
2022-11-27T00:11:33.941Z,101492.94
2022-11-27T00:14:36.064Z,101489.28
2022-11-27T00:17:38.470Z,101481.34
2022-11-27T00:20:40.749Z,101487.84
2022-11-27T00:23:43.626Z,101485.63
2022-11-27T00:26:47.102Z,101485.00
2022-11-27T00:29:49.494Z,101481.81
2022-11-27T00:32:51.576Z,101481.97
2022-11-27T00:35:54.297Z,101484.00
2022-11-27T00:38:56.724Z,101486.03
2022-11-27T00:41:59.445Z,101489.72
2022-11-27T00:45:01.772Z,101490.81
2022-11-27T00:48:04.458Z,101494.50
2022-11-27T00:51:08.567Z,101501.16
2022-11-27T00:54:10.947Z,101501.22
2022-11-27T00:57:13.018Z,101501.66
2022-11-27T01:00:16.267Z,101501.72
2022-11-27T01:03:18.457Z,101502.62
2022-11-27T01:06:21.714Z,101503.97
2022-11-27T01:09:23.888Z,101496.66
2022-11-27T01:12:26.456Z,101507.69
2022-11-27T01:15:28.704Z,101497.97
2022-11-27T01:18:31.786Z,101500.00
2022-11-27T01:21:35.048Z,101507.38
2022-11-27T01:24:37.642Z,101505.31
2022-11-27T01:27:40.057Z,101502.31
2022-11-27T01:30:42.598Z,101503.94
2022-11-27T01:33:45.611Z,101503.28
2022-11-27T01:36:48.382Z,101492.38
2022-11-27T01:39:50.474Z,101494.84
2022-11-27T01:42:52.870Z,101502.16
2022-11-27T01:45:54.995Z,101502.31
2022-11-27T01:49:20.612Z,101506.19
2022-11-27T01:52:28.011Z,101500.34
2022-11-27T01:55:37.307Z,101501.31
2022-11-27T01:58:42.047Z,101504.22
2022-11-27T02:01:44.584Z,101505.19
2022-11-27T02:04:47.009Z,101504.50
2022-11-27T02:07:51.116Z,101509.78
2022-11-27T02:11:40.544Z,101506.53
2022-11-27T02:15:09.657Z,101509.19
2022-11-27T02:18:52.441Z,101508.16
2022-11-27T02:22:10.428Z,101514.56
2022-11-27T02:25:28.228Z,101507.56
2022-11-27T02:29:08.853Z,101503.34
2022-11-27T02:32:19.984Z,101499.72
2022-11-27T02:35:30.352Z,101501.25
2022-11-27T02:38:44.539Z,101507.56
2022-11-27T02:41:57.423Z,101510.34
2022-11-27T02:45:07.740Z,101517.12
2022-11-27T02:48:13.532Z,101511.69
2022-11-27T02:51:22.387Z,101516.91
2022-11-27T02:54:28.700Z,101509.94
2022-11-27T02:57:32.966Z,101510.53
2022-11-27T03:00:36.012Z,101511.69
2022-11-27T03:03:45.843Z,101520.16
2022-11-27T03:06:54.012Z,101515.16
2022-11-27T03:10:02.137Z,101517.84
2022-11-27T03:13:04.625Z,101523.09
2022-11-27T03:16:30.294Z,101518.09
2022-11-27T03:19:57.584Z,101517.16
2022-11-27T03:22:59.656Z,101515.41
2022-11-27T03:26:02.114Z,101513.78
2022-11-27T03:29:08.474Z,101511.13
2022-11-27T03:32:11.084Z,101514.50
2022-11-27T03:35:17.990Z,101516.25
2022-11-27T03:38:20.535Z,101518.56
2022-11-27T03:41:25.771Z,101520.66
2022-11-27T03:44:40.716Z,101524.13
2022-11-27T03:48:18.195Z,101524.25
2022-11-27T03:51:45.555Z,101526.47
2022-11-27T03:55:12.902Z,101528.91
2022-11-27T03:58:25.937Z,101531.34
2022-11-27T04:01:30.159Z,101533.44
2022-11-27T04:04:32.720Z,101522.38
2022-11-27T04:07:34.896Z,101518.31
2022-11-27T04:10:37.281Z,101527.06
2022-11-27T04:13:39.469Z,101519.97
2022-11-27T04:16:41.862Z,101526.72
2022-11-27T04:19:44.018Z,101527.19
2022-11-27T04:22:46.477Z,101526.03
2022-11-27T04:25:49.722Z,101522.06
2022-11-27T04:28:52.144Z,101525.00
2022-11-27T04:31:54.261Z,101525.81
2022-11-27T04:34:56.667Z,101521.63
2022-11-27T04:37:59.359Z,101521.50
2022-11-27T04:41:01.821Z,101523.38
2022-11-27T04:44:04.039Z,101536.38
2022-11-27T04:47:06.528Z,101523.00
2022-11-27T04:50:09.056Z,101519.06
2022-11-27T04:53:11.510Z,101521.16
2022-11-27T04:56:13.628Z,101519.66
2022-11-27T04:59:15.986Z,101509.06
2022-11-27T05:02:18.048Z,101508.37
2022-11-27T05:05:20.433Z,101508.72
2022-11-27T05:08:23.420Z,101507.09
2022-11-27T05:11:26.473Z,101512.91
2022-11-27T05:14:29.315Z,101517.78
2022-11-27T05:17:31.869Z,101520.00
2022-11-27T05:20:34.009Z,101519.41
2022-11-27T05:23:36.403Z,101518.97
2022-11-27T05:26:39.565Z,101518.25
2022-11-27T05:29:43.492Z,101513.94
2022-11-27T05:32:45.612Z,101513.00
2022-11-27T05:35:48.357Z,101520.22
2022-11-27T05:38:50.540Z,101512.00
2022-11-27T05:41:52.898Z,101503.16
2022-11-27T05:44:58.274Z,101506.72
2022-11-27T05:48:01.064Z,101513.84
2022-11-27T05:51:04.431Z,101508.37
2022-11-27T05:54:06.840Z,101509.06
2022-11-27T05:57:08.939Z,101515.00
2022-11-27T06:00:12.021Z,101520.34
2022-11-27T06:03:14.850Z,101518.03
2022-11-27T06:06:18.863Z,101511.75
2022-11-27T06:09:21.279Z,101517.53
2022-11-27T06:12:23.409Z,101520.78
2022-11-27T06:15:25.780Z,101522.44
2022-11-27T06:18:27.922Z,101521.37
2022-11-27T06:21:30.310Z,101526.59
2022-11-27T06:24:32.432Z,101525.91
2022-11-27T06:27:35.942Z,101529.41
2022-11-27T06:30:39.492Z,101537.06
2022-11-27T06:33:41.964Z,101537.88
2022-11-27T06:36:44.073Z,101539.50
2022-11-27T06:39:48.431Z,101538.56
2022-11-27T06:42:50.493Z,101536.69
2022-11-27T06:45:59.698Z,101536.56
2022-11-27T06:49:02.621Z,101540.03
2022-11-27T06:52:05.075Z,101544.47
2022-11-27T06:55:07.683Z,101551.34
2022-11-27T06:58:10.819Z,101549.94
2022-11-27T07:01:16.392Z,101554.91
2022-11-27T07:04:18.886Z,101550.97
2022-11-27T07:07:21.100Z,101544.81
2022-11-27T07:10:23.537Z,101535.97
2022-11-27T07:13:25.704Z,101541.63
2022-11-27T07:16:30.401Z,101537.69
2022-11-27T07:19:32.505Z,101543.47
2022-11-27T07:22:34.927Z,101548.59
2022-11-27T07:25:38.120Z,101546.25
2022-11-27T07:28:43.653Z,101553.34
2022-11-27T07:31:45.802Z,101550.31
2022-11-27T07:34:48.216Z,101551.19
2022-11-27T07:37:50.422Z,101556.44
2022-11-27T07:40:54.033Z,101565.66
2022-11-27T07:43:56.264Z,101552.47
2022-11-27T07:46:58.621Z,101550.12
2022-11-27T07:50:00.742Z,101552.31
2022-11-27T07:53:03.168Z,101557.69
2022-11-27T07:56:06.413Z,101554.63
2022-11-27T07:59:08.745Z,101557.16
2022-11-27T08:02:13.286Z,101552.22
2022-11-27T08:05:15.836Z,101556.47
2022-11-27T08:08:18.158Z,101556.56
2022-11-27T08:11:20.725Z,101552.41
2022-11-27T08:14:22.897Z,101549.19
2022-11-27T08:17:25.404Z,101544.12
2022-11-27T08:20:27.543Z,101541.87
2022-11-27T08:23:29.939Z,101544.12
2022-11-27T08:26:32.269Z,101548.34
2022-11-27T08:29:34.969Z,101550.06
2022-11-27T08:32:41.662Z,101550.69
2022-11-27T08:35:48.958Z,101553.31
2022-11-27T08:38:51.190Z,101559.97
2022-11-27T08:41:54.400Z,101572.72
2022-11-27T08:44:56.480Z,101570.38
2022-11-27T08:47:59.382Z,101570.38
2022-11-27T08:51:09.534Z,101575.47
2022-11-27T08:54:11.856Z,101568.50
2022-11-27T08:57:14.181Z,101567.44
2022-11-27T09:00:17.038Z,101575.78
2022-11-27T09:03:19.179Z,101573.84
2022-11-27T09:06:28.088Z,101577.59
2022-11-27T09:09:30.280Z,101576.59
2022-11-27T09:12:32.745Z,101573.84
2022-11-27T09:15:34.892Z,101587.34
2022-11-27T09:18:37.383Z,101582.47
2022-11-27T09:21:39.506Z,101585.38
2022-11-27T09:24:42.293Z,101587.06
2022-11-27T09:27:44.714Z,101585.38
2022-11-27T09:30:47.254Z,101586.22
2022-11-27T09:33:50.215Z,101584.41
2022-11-27T09:36:52.598Z,101592.69
2022-11-27T09:39:55.680Z,101590.75
2022-11-27T09:43:09.498Z,101587.34
2022-11-27T09:46:19.658Z,101576.91
2022-11-27T09:49:39.565Z,101575.69
2022-11-27T09:52:46.508Z,101567.53
2022-11-27T09:55:52.588Z,101569.41
2022-11-27T09:58:59.715Z,101568.75
2022-11-27T10:02:02.268Z,101565.31
2022-11-27T10:05:15.062Z,101563.50
2022-11-27T10:08:38.424Z,101557.75
2022-11-27T10:12:18.420Z,101552.66
2022-11-27T10:15:35.784Z,101547.28
2022-11-27T10:18:50.610Z,101549.13
2022-11-27T10:21:59.566Z,101544.31
2022-11-27T10:25:25.175Z,101543.19
2022-11-27T10:28:46.081Z,101536.09
2022-11-27T10:31:57.773Z,101539.50
2022-11-27T10:35:02.621Z,101545.44
2022-11-27T10:38:19.360Z,101534.59
2022-11-27T10:41:48.206Z,101530.56
2022-11-27T10:44:58.802Z,101532.72
2022-11-27T10:48:00.918Z,101534.94
2022-11-27T10:51:03.503Z,101533.25
2022-11-27T10:54:12.131Z,101524.28
2022-11-27T10:57:44.056Z,101527.75
2022-11-27T11:00:47.270Z,101525.00
2022-11-27T11:03:50.153Z,101518.53
2022-11-27T11:06:52.312Z,101511.03
2022-11-27T11:09:56.364Z,101512.78
2022-11-27T11:13:23.812Z,101510.09
2022-11-27T11:16:34.752Z,101501.25
2022-11-27T11:19:38.999Z,101496.91
2022-11-27T11:22:46.288Z,101493.25
2022-11-27T11:25:52.146Z,101497.22
2022-11-27T11:28:58.041Z,101491.84
2022-11-27T11:32:08.494Z,101493.78
2022-11-27T11:35:26.107Z,101488.97
2022-11-27T11:38:32.470Z,101479.47
2022-11-27T11:41:38.793Z,101474.47
2022-11-27T11:44:41.172Z,101471.09
2022-11-27T11:47:45.354Z,101463.44
2022-11-27T11:50:55.498Z,101468.34
2022-11-27T11:54:23.923Z,101461.03
2022-11-27T11:58:03.831Z,101460.06
2022-11-27T12:01:27.497Z,101457.94
2022-11-27T12:04:33.207Z,101453.03
2022-11-27T12:08:04.690Z,101458.06
2022-11-27T12:11:25.768Z,101448.56
2022-11-27T12:14:47.456Z,101450.37
2022-11-27T12:18:34.983Z,101443.63
2022-11-27T12:21:49.744Z,101443.09
2022-11-27T12:25:22.305Z,101443.84
2022-11-27T12:28:34.171Z,101444.31
2022-11-27T12:32:08.310Z,101448.06
2022-11-27T12:35:22.721Z,101437.31
2022-11-27T12:38:43.693Z,101442.75
2022-11-27T12:42:00.571Z,101434.75
2022-11-27T12:45:17.634Z,101433.75
2022-11-27T12:48:35.973Z,101437.34
2022-11-27T12:51:51.005Z,101437.34
2022-11-27T12:55:04.681Z,101435.69
2022-11-27T12:58:23.415Z,101431.91
2022-11-27T13:01:39.528Z,101440.44
2022-11-27T13:04:51.740Z,101423.53
2022-11-27T13:08:06.445Z,101427.66
2022-11-27T13:11:13.770Z,101433.69
2022-11-27T13:14:20.449Z,101424.06
2022-11-27T13:17:29.692Z,101425.62
2022-11-27T13:20:36.745Z,101415.88
2022-11-27T13:23:39.266Z,101422.34
2022-11-27T13:26:55.815Z,101419.97
2022-11-27T13:30:05.231Z,101419.97
2022-11-27T13:33:08.081Z,101419.50
2022-11-27T13:36:26.968Z,101416.47
2022-11-27T13:39:35.688Z,101422.44
2022-11-27T13:42:44.835Z,101419.97
2022-11-27T13:45:48.035Z,101423.22
2022-11-27T13:48:55.144Z,101420.50
2022-11-27T13:52:24.851Z,101419.72
2022-11-27T13:55:39.285Z,101418.31
2022-11-27T13:58:42.956Z,101423.34
2022-11-27T14:01:55.987Z,101418.97
2022-11-27T14:04:59.321Z,101418.97
2022-11-27T14:08:01.545Z,101415.22
2022-11-27T14:11:08.077Z,101417.66
2022-11-27T14:14:19.499Z,101416.09
2022-11-27T14:17:33.375Z,101422.69
2022-11-27T14:20:45.773Z,101427.25
2022-11-27T14:23:50.505Z,101430.00
2022-11-27T14:26:54.269Z,101427.31
2022-11-27T14:29:56.636Z,101419.72
2022-11-27T14:32:59.401Z,101425.34
2022-11-27T14:36:05.752Z,101429.06
2022-11-27T14:39:07.923Z,101428.19
2022-11-27T14:42:29.807Z,101425.03
2022-11-27T14:45:35.608Z,101426.63
2022-11-27T14:48:46.802Z,101424.75
2022-11-27T14:51:51.223Z,101431.69
2022-11-27T14:54:55.605Z,101431.31
2022-11-27T14:57:58.228Z,101437.03
2022-11-27T15:01:04.575Z,101438.91
2022-11-27T15:04:26.245Z,101444.09
2022-11-27T15:07:31.552Z,101446.72
2022-11-27T15:10:39.768Z,101448.84
2022-11-27T15:13:42.377Z,101445.56
2022-11-27T15:16:47.678Z,101446.47
2022-11-27T15:19:50.210Z,101450.34
2022-11-27T15:22:55.364Z,101456.84
2022-11-27T15:26:00.680Z,101452.47
2022-11-27T15:29:03.726Z,101448.66
2022-11-27T15:32:23.631Z,101447.09
2022-11-27T15:35:29.841Z,101434.91
2022-11-27T15:38:32.233Z,101443.87
2022-11-27T15:41:37.364Z,101439.78
2022-11-27T15:44:42.285Z,101441.53
2022-11-27T15:47:44.751Z,101443.22
2022-11-27T15:50:51.731Z,101444.84
2022-11-27T15:53:54.147Z,101442.16
2022-11-27T15:56:56.484Z,101437.53
2022-11-27T15:59:58.709Z,101442.09
2022-11-27T16:03:01.127Z,101444.41
2022-11-27T16:06:05.176Z,101440.66
2022-11-27T16:09:07.371Z,101434.91
2022-11-27T16:12:09.710Z,101443.28
2022-11-27T16:15:11.999Z,101442.03
2022-11-27T16:18:14.410Z,101429.72
2022-11-27T16:21:18.157Z,101428.53
2022-11-27T16:24:20.511Z,101428.59
2022-11-27T16:27:22.587Z,101428.84
2022-11-27T16:30:25.078Z,101422.63
2022-11-27T16:33:30.478Z,101426.84
2022-11-27T16:36:33.127Z,101428.16
2022-11-27T16:39:35.403Z,101423.13
2022-11-27T16:42:38.457Z,101422.63
2022-11-27T16:45:40.911Z,101410.25
2022-11-27T16:48:44.965Z,101415.12
2022-11-27T16:51:47.373Z,101417.31
2022-11-27T16:54:49.746Z,101404.50
2022-11-27T16:57:52.221Z,101406.69
2022-11-27T17:00:54.807Z,101400.28
2022-11-27T17:03:57.167Z,101399.47
2022-11-27T17:07:00.092Z,101396.97
2022-11-27T17:10:02.687Z,101400.97
2022-11-27T17:13:05.015Z,101394.28
2022-11-27T17:16:10.497Z,101394.22
2022-11-27T17:19:14.212Z,101401.69
2022-11-27T17:22:16.411Z,101396.66
2022-11-27T17:25:18.890Z,101398.59
2022-11-27T17:28:21.584Z,101385.59
2022-11-27T17:31:32.551Z,101382.91
2022-11-27T17:34:34.938Z,101386.78
2022-11-27T17:37:38.286Z,101384.59
2022-11-27T17:40:40.531Z,101391.09
2022-11-27T17:43:42.961Z,101384.66
2022-11-27T17:46:49.775Z,101374.72
2022-11-27T17:49:53.444Z,101370.62
2022-11-27T17:52:55.975Z,101367.19
2022-11-27T17:56:12.383Z,101364.44
2022-11-27T17:59:15.396Z,101364.78
2022-11-27T18:02:20.233Z,101363.03
2022-11-27T18:05:23.216Z,101359.63
2022-11-27T18:08:25.366Z,101352.34
2022-11-27T18:11:30.120Z,101346.16
2022-11-27T18:14:33.357Z,101344.25
2022-11-27T18:17:36.311Z,101352.28
2022-11-27T18:20:38.447Z,101348.91
2022-11-27T18:24:14.444Z,101351.03
2022-11-27T18:27:08.485Z,101349.09
2022-11-27T18:30:12.005Z,101348.69
2022-11-27T18:33:14.263Z,101344.53
2022-11-27T18:36:17.739Z,101347.53
2022-11-27T18:39:19.874Z,101350.22
2022-11-27T18:42:22.393Z,101345.66
2022-11-27T18:45:33.354Z,101335.13
2022-11-27T18:48:36.963Z,101341.66
2022-11-27T18:51:39.045Z,101335.13
2022-11-27T18:54:42.665Z,101329.25
2022-11-27T18:57:44.958Z,101332.50
2022-11-27T19:00:47.709Z,101335.94
2022-11-27T19:03:50.390Z,101335.63
2022-11-27T19:06:53.597Z,101332.37
2022-11-27T19:09:56.645Z,101339.38
2022-11-27T19:12:59.017Z,101341.56
2022-11-27T19:16:08.973Z,101344.19
2022-11-27T19:19:52.139Z,101339.69
2022-11-27T19:22:38.195Z,101337.75
2022-11-27T19:25:42.035Z,101338.75
2022-11-27T19:28:45.669Z,101337.47
2022-11-27T19:31:48.521Z,101344.12
2022-11-27T19:34:51.156Z,101350.06
2022-11-27T19:37:53.607Z,101351.06
2022-11-27T19:40:55.989Z,101350.47
2022-11-27T19:44:01.372Z,101355.03
2022-11-27T19:47:03.504Z,101347.75
2022-11-27T19:50:08.751Z,101347.25
2022-11-27T19:53:11.153Z,101346.53
2022-11-27T19:56:13.794Z,101337.06
2022-11-27T19:59:16.039Z,101345.13
2022-11-27T20:02:18.491Z,101343.50
2022-11-27T20:05:20.987Z,101340.09
2022-11-27T20:08:23.385Z,101334.91
2022-11-27T20:11:29.768Z,101331.44
2022-11-27T20:14:34.944Z,101321.25
2022-11-27T20:17:37.567Z,101320.91
2022-11-27T20:20:39.734Z,101322.78
2022-11-27T20:23:43.384Z,101326.25
2022-11-27T20:26:45.524Z,101316.06
2022-11-27T20:29:48.162Z,101323.56
2022-11-27T20:32:50.339Z,101323.84
2022-11-27T20:35:53.417Z,101325.91
2022-11-27T20:38:55.762Z,101316.59
2022-11-27T20:41:58.424Z,101316.81
2022-11-27T20:45:05.024Z,101311.50
2022-11-27T20:48:09.003Z,101314.44
2022-11-27T20:51:13.793Z,101309.69
2022-11-27T20:54:16.665Z,101305.13
2022-11-27T20:57:18.818Z,101311.37
2022-11-27T21:00:21.419Z,101303.78
2022-11-27T21:03:23.586Z,101299.53
2022-11-27T21:06:29.463Z,101300.91
2022-11-27T21:09:31.648Z,101312.69
2022-11-27T21:12:34.166Z,101309.75
2022-11-27T21:15:36.320Z,101312.97
2022-11-27T21:18:39.151Z,101307.34
2022-11-27T21:21:41.559Z,101308.03
2022-11-27T21:24:44.718Z,101304.97
2022-11-27T21:27:46.875Z,101305.53
2022-11-27T21:30:49.293Z,101305.72
2022-11-27T21:33:54.347Z,101301.91
2022-11-27T21:36:57.174Z,101296.53
2022-11-27T21:39:59.337Z,101296.25
2022-11-27T21:43:01.725Z,101293.97
2022-11-27T21:46:10.203Z,101294.37
2022-11-27T21:49:14.978Z,101298.22
2022-11-27T21:52:17.274Z,101290.19
2022-11-27T21:55:20.788Z,101293.38
2022-11-27T21:58:23.313Z,101292.75
2022-11-27T22:01:26.625Z,101291.13
2022-11-27T22:04:29.002Z,101293.31
2022-11-27T22:07:31.253Z,101292.19
2022-11-27T22:10:33.733Z,101289.38
2022-11-27T22:13:36.436Z,101289.56
2022-11-27T22:16:45.188Z,101287.78
2022-11-27T22:19:48.297Z,101281.81
2022-11-27T22:22:50.729Z,101286.19
2022-11-27T22:25:52.917Z,101281.72
2022-11-27T22:28:57.872Z,101283.91
2022-11-27T22:32:00.308Z,101283.25
2022-11-27T22:35:03.100Z,101286.53
2022-11-27T22:38:05.304Z,101277.78
2022-11-27T22:41:09.147Z,101277.78
2022-11-27T22:44:15.587Z,101276.28
2022-11-27T22:47:18.087Z,101275.09
2022-11-27T22:50:20.221Z,101270.63
2022-11-27T22:53:22.987Z,101275.28
2022-11-27T22:56:25.890Z,101272.16
2022-11-27T22:59:33.248Z,101272.53
2022-11-27T23:02:39.682Z,101277.75
2022-11-27T23:05:45.769Z,101270.97
2022-11-27T23:08:49.223Z,101272.38
2022-11-27T23:11:52.140Z,101259.97
2022-11-27T23:14:54.289Z,101254.09
2022-11-27T23:17:58.091Z,101251.97
2022-11-27T23:21:00.516Z,101259.44
2022-11-27T23:24:04.211Z,101256.28
2022-11-27T23:27:06.376Z,101248.78
2022-11-27T23:30:09.443Z,101238.00
2022-11-27T23:33:11.512Z,101236.38
2022-11-27T23:36:13.909Z,101223.47
2022-11-27T23:39:16.089Z,101211.03
2022-11-27T23:42:18.765Z,101209.97
2022-11-27T23:45:20.902Z,101197.94
2022-11-27T23:48:23.327Z,101191.75
2022-11-27T23:51:32.110Z,101198.31
2022-11-27T23:54:34.605Z,101195.31
2022-11-27T23:57:37.026Z,101193.37
